Time;durP1;ratioP1;P1;durP2;ratioP2;P2;SDS_P1;SDS_P2;PMS_P1;PMS_P2;Temp;Humidity;BMP_temperature;BMP_pressure;BME280_temperature;BME280_humidity;BME280_pressure;Samples;Min_cycle;Max_cycle;Signal;HPM_P1;HPM_P2
2023/01/05 00:00:25;;;;;;;2.43;1.67;;;10.00;99.90;;;;;;4965770;28;20093;-81
2023/01/05 00:02:51;;;;;;;2.97;1.60;;;10.00;99.90;;;;;;4966229;28;20026;-81
2023/01/05 00:05:16;;;;;;;2.10;1.40;;;9.90;99.90;;;;;;4965807;28;20026;-81
2023/01/05 00:07:43;;;;;;;3.57;1.60;;;9.90;99.90;;;;;;4965513;28;20031;-81
2023/01/05 00:22:29;;;;;;;4.20;2.27;;;9.90;99.90;;;;;;4965570;28;20023;-81
2023/01/05 00:23:58;;;;;;;3.03;1.67;;;9.80;99.90;;;;;;4966758;28;20235;-81
2023/01/05 00:26:24;;;;;;;2.93;1.70;;;9.80;99.90;;;;;;4969916;28;20031;-81
2023/01/05 00:28:49;;;;;;;4.13;2.03;;;9.80;99.90;;;;;;4969046;28;20035;-80
2023/01/05 00:31:15;;;;;;;1.80;1.20;;;9.90;99.90;;;;;;4970177;28;20023;-80
2023/01/05 00:33:40;;;;;;;3.20;1.57;;;9.90;99.90;;;;;;4968640;28;20396;-81
2023/01/05 00:36:09;;;;;;;3.70;1.83;;;9.90;99.90;;;;;;4969247;28;20109;-81
2023/01/05 00:38:35;;;;;;;2.53;1.53;;;9.90;99.90;;;;;;4968873;28;20205;-81
2023/01/05 00:41:00;;;;;;;0.70;0.70;;;9.90;99.90;;;;;;4967809;28;20048;-81
2023/01/05 00:43:26;;;;;;;3.70;1.80;;;9.90;99.90;;;;;;4968666;28;20406;-80
2023/01/05 00:45:51;;;;;;;1.70;1.20;;;10.00;99.90;;;;;;4968751;28;20042;-81
2023/01/05 00:48:17;;;;;;;1.73;0.80;;;9.90;99.90;;;;;;4969086;28;20030;-81
2023/01/05 00:50:42;;;;;;;2.20;1.30;;;10.00;99.90;;;;;;4968930;28;20951;-81
2023/01/05 00:53:08;;;;;;;1.40;0.97;;;10.00;99.90;;;;;;4968929;28;20993;-81
2023/01/05 00:55:33;;;;;;;1.43;1.10;;;9.90;99.90;;;;;;4968440;28;20042;-81
2023/01/05 00:57:59;;;;;;;1.30;0.90;;;9.90;99.90;;;;;;4968897;28;20026;-81
2023/01/05 01:00:24;;;;;;;1.70;1.20;;;9.90;99.90;;;;;;4969020;28;20038;-80
2023/01/05 01:02:51;;;;;;;2.37;1.20;;;9.90;99.90;;;;;;4969230;28;20034;-80
2023/01/05 01:05:17;;;;;;;2.97;1.50;;;10.00;99.90;;;;;;4968652;28;20523;-81
2023/01/05 01:07:43;;;;;;;1.57;0.97;;;10.00;99.90;;;;;;4968319;28;20076;-81
2023/01/05 01:10:10;;;;;;;1.90;1.17;;;10.10;99.90;;;;;;4968077;28;20022;-80
2023/01/05 01:12:36;;;;;;;2.20;1.37;;;10.10;99.90;;;;;;4968333;28;20070;-81
2023/01/05 01:15:01;;;;;;;1.57;1.00;;;10.00;99.90;;;;;;4968110;28;20022;-80
2023/01/05 01:17:27;;;;;;;1.20;0.80;;;10.00;99.90;;;;;;4968358;28;20030;-80
2023/01/05 01:19:53;;;;;;;0.87;0.80;;;10.00;99.90;;;;;;4968210;28;20038;-80
2023/01/05 01:22:18;;;;;;;1.90;1.13;;;10.00;99.90;;;;;;4967915;28;20057;-80
2023/01/05 01:24:44;;;;;;;1.07;0.70;;;10.10;99.90;;;;;;4967761;28;20031;-81
2023/01/05 01:27:09;;;;;;;0.60;0.50;;;10.00;99.90;;;;;;4967712;28;20027;-80
2023/01/05 01:29:35;;;;;;;0.87;0.70;;;10.10;99.90;;;;;;4966515;28;20046;-81
2023/01/05 01:32:00;;;;;;;0.87;0.80;;;10.10;99.90;;;;;;4966101;28;20038;-80
2023/01/05 01:34:26;;;;;;;1.90;0.87;;;10.10;99.90;;;;;;4967651;28;20432;-80
2023/01/05 01:36:54;;;;;;;1.30;0.90;;;10.10;99.90;;;;;;4967425;28;20030;-80
2023/01/05 01:39:20;;;;;;;2.40;0.90;;;10.10;99.90;;;;;;4967593;28;20148;-81
2023/01/05 01:41:45;;;;;;;1.63;0.80;;;10.20;99.90;;;;;;4966417;28;20030;-81
2023/01/05 01:44:48;;;;;;;0.80;0.60;;;10.10;99.90;;;;;;4967086;28;20114;-81
2023/01/05 01:47:20;;;;;;;0.60;0.60;;;10.10;99.90;;;;;;4967616;28;20034;-82
2023/01/05 01:49:46;;;;;;;0.50;0.50;;;10.00;99.90;;;;;;4967830;28;20031;-81
2023/01/05 01:52:11;;;;;;;1.50;0.83;;;9.90;99.90;;;;;;4967935;28;20037;-81
2023/01/05 01:54:37;;;;;;;1.00;0.60;;;10.00;99.90;;;;;;4967398;28;20023;-81
2023/01/05 01:57:03;;;;;;;0.77;0.67;;;9.90;99.90;;;;;;4967237;28;20055;-81
2023/01/05 01:59:29;;;;;;;0.50;0.50;;;9.90;99.90;;;;;;4967237;28;20531;-81
2023/01/05 02:01:59;;;;;;;0.60;0.60;;;9.90;99.90;;;;;;4967613;28;20059;-81
2023/01/05 02:04:26;;;;;;;0.77;0.70;;;9.90;99.90;;;;;;4967426;28;20026;-81
2023/01/05 02:06:52;;;;;;;1.90;0.60;;;9.90;99.90;;;;;;4967199;28;20154;-81
2023/01/05 02:09:18;;;;;;;0.80;0.80;;;9.90;99.90;;;;;;4967155;28;20027;-81
2023/01/05 02:12:04;;;;;;;0.60;0.50;;;9.80;99.90;;;;;;4966885;28;20471;-81
2023/01/05 02:15:05;;;;;;;0.70;0.60;;;9.80;99.90;;;;;;4967347;28;20868;-82
2023/01/05 02:17:54;;;;;;;1.87;0.70;;;9.80;99.90;;;;;;4967091;28;20030;-82
2023/01/05 02:20:57;;;;;;;1.30;0.67;;;9.90;99.90;;;;;;4957469;28;20045;-82
2023/01/05 02:23:46;;;;;;;1.07;0.77;;;9.90;99.90;;;;;;4968320;28;20073;-81
2023/01/05 02:26:40;;;;;;;2.17;0.60;;;9.90;99.90;;;;;;4970265;28;20180;-81
2023/01/05 02:29:23;;;;;;;0.63;0.60;;;9.80;99.90;;;;;;4969796;28;20050;-82
2023/01/05 02:32:18;;;;;;;1.43;0.60;;;9.80;99.90;;;;;;4970471;28;20029;-81
2023/01/05 02:34:58;;;;;;;0.90;0.73;;;9.90;99.90;;;;;;4969192;28;20162;-81
2023/01/05 02:37:31;;;;;;;1.13;0.60;;;9.90;99.90;;;;;;4986571;28;20033;-81
2023/01/05 02:40:02;;;;;;;1.00;0.80;;;9.90;99.90;;;;;;4971088;28;20023;-81
2023/01/05 02:42:33;;;;;;;1.67;1.00;;;10.00;99.90;;;;;;4970642;28;20026;-82
2023/01/05 02:45:04;;;;;;;1.83;0.80;;;10.00;99.90;;;;;;4970290;28;20047;-81
2023/01/05 02:47:40;;;;;;;0.67;0.60;;;10.00;99.90;;;;;;4968364;28;20392;-81
2023/01/05 02:50:18;;;;;;;0.77;0.73;;;10.00;99.90;;;;;;4969297;28;20026;-82
2023/01/05 02:52:53;;;;;;;0.67;0.67;;;10.00;99.90;;;;;;4984856;28;20019;-81
2023/01/05 02:55:23;;;;;;;2.35;0.93;;;10.00;99.90;;;;;;4969880;28;20014;-81
2023/01/05 02:58:04;;;;;;;0.90;0.70;;;9.90;99.90;;;;;;4969924;28;20027;-81
2023/01/05 03:00:43;;;;;;;0.70;0.67;;;9.90;99.90;;;;;;4969624;28;20015;-81
2023/01/05 03:03:19;;;;;;;2.43;0.80;;;9.80;99.90;;;;;;4970245;28;20026;-81
2023/01/05 03:05:52;;;;;;;1.33;1.00;;;9.70;99.90;;;;;;4970240;28;20026;-82
2023/01/05 03:08:23;;;;;;;1.23;0.83;;;9.70;99.90;;;;;;4970146;28;20030;-81
2023/01/05 03:14:11;;;;;;;3.80;0.90;;;9.70;99.90;;;;;;4969706;28;20029;-81
2023/01/05 03:16:38;;;;;;;1.50;0.80;;;9.60;99.90;;;;;;4970113;28;20030;-81
2023/01/05 03:35:44;;;;;;;1.25;0.85;;;9.50;99.90;;;;;;4970119;28;20057;-81
2023/01/05 03:38:19;;;;;;;1.83;0.80;;;9.50;99.90;;;;;;4968772;28;20109;-81
2023/01/05 03:40:48;;;;;;;0.73;0.60;;;9.50;99.90;;;;;;4969175;28;20061;-81
2023/01/05 03:43:14;;;;;;;1.57;0.90;;;9.70;99.90;;;;;;4968752;28;20403;-81
2023/01/05 03:45:45;;;;;;;1.27;0.80;;;9.70;99.90;;;;;;4969524;28;20082;-81
2023/01/05 03:48:10;;;;;;;1.20;0.80;;;9.70;99.90;;;;;;4969149;28;20026;-81
2023/01/05 03:50:37;;;;;;;1.57;0.83;;;9.70;99.90;;;;;;4971491;28;20106;-81
2023/01/05 03:53:03;;;;;;;1.00;0.83;;;9.70;99.90;;;;;;4970233;28;20034;-81
2023/01/05 03:55:28;;;;;;;1.00;0.70;;;9.70;99.90;;;;;;4969402;28;20026;-81
2023/01/05 03:57:54;;;;;;;3.27;1.37;;;9.70;99.90;;;;;;4969267;28;20057;-81
2023/01/05 04:00:21;;;;;;;1.80;1.00;;;9.80;99.90;;;;;;4969363;28;20015;-81
2023/01/05 04:02:46;;;;;;;3.13;1.10;;;9.80;99.90;;;;;;4972082;28;20070;-81
2023/01/05 04:05:12;;;;;;;1.00;0.90;;;9.80;99.90;;;;;;4972859;28;20459;-81
2023/01/05 04:07:37;;;;;;;1.63;0.80;;;9.80;99.90;;;;;;4974079;28;20030;-81
2023/01/05 04:10:04;;;;;;;1.20;0.70;;;9.80;99.90;;;;;;4972606;28;20026;-82
2023/01/05 04:12:29;;;;;;;1.63;0.80;;;9.80;99.90;;;;;;4973342;28;20037;-81
2023/01/05 04:14:55;;;;;;;1.87;0.70;;;9.90;99.90;;;;;;4973043;28;20030;-81
2023/01/05 04:17:20;;;;;;;0.97;0.70;;;9.80;99.90;;;;;;4973137;28;20031;-81
2023/01/05 04:19:46;;;;;;;1.07;0.70;;;9.90;99.90;;;;;;4972674;28;20404;-81
2023/01/05 04:22:11;;;;;;;1.03;0.80;;;9.90;99.90;;;;;;4973672;28;20034;-81
2023/01/05 04:24:37;;;;;;;2.53;0.90;;;10.00;99.90;;;;;;4972487;28;20396;-81
2023/01/05 04:27:03;;;;;;;1.40;0.90;;;10.00;99.90;;;;;;4972875;28;20507;-81
2023/01/05 04:29:28;;;;;;;2.17;0.90;;;10.00;99.90;;;;;;4972396;28;20030;-81
2023/01/05 04:31:54;;;;;;;2.30;1.23;;;10.10;99.90;;;;;;4972854;28;20034;-82
2023/01/05 04:34:20;;;;;;;0.83;0.70;;;10.20;99.90;;;;;;4972844;28;20521;-82
2023/01/05 04:36:46;;;;;;;1.10;0.70;;;10.20;99.90;;;;;;4972655;28;20023;-81
2023/01/05 04:39:12;;;;;;;0.77;0.60;;;10.20;99.90;;;;;;4971762;28;20022;-81
2023/01/05 04:41:38;;;;;;;1.00;0.80;;;10.20;99.90;;;;;;4972852;28;20089;-81
2023/01/05 04:44:04;;;;;;;0.60;0.60;;;10.10;99.90;;;;;;4972795;28;20122;-81
2023/01/05 04:46:29;;;;;;;0.70;0.67;;;10.20;99.90;;;;;;4972106;28;20038;-81
2023/01/05 04:48:55;;;;;;;0.87;0.70;;;10.10;99.90;;;;;;4971917;28;20469;-81
2023/01/05 04:51:20;;;;;;;1.13;0.70;;;10.10;99.90;;;;;;4972737;28;20457;-82
2023/01/05 04:53:46;;;;;;;1.77;0.90;;;10.20;99.90;;;;;;4971110;28;20031;-81
2023/01/05 04:56:11;;;;;;;0.70;0.70;;;10.20;99.90;;;;;;4972193;28;20027;-81
2023/01/05 04:58:37;;;;;;;0.63;0.63;;;10.40;99.90;;;;;;4972457;28;20066;-81
2023/01/05 05:01:02;;;;;;;1.27;0.70;;;10.30;99.90;;;;;;4971927;28;20023;-81
2023/01/05 05:03:28;;;;;;;1.63;0.60;;;10.40;99.90;;;;;;4973030;28;20034;-81
2023/01/05 05:05:54;;;;;;;1.10;0.83;;;10.40;99.90;;;;;;4971834;28;20110;-81
2023/01/05 05:08:19;;;;;;;1.33;0.70;;;10.40;99.90;;;;;;4970533;28;20605;-81
2023/01/05 05:10:45;;;;;;;1.00;0.83;;;10.30;99.90;;;;;;4971066;28;20030;-81
2023/01/05 05:13:10;;;;;;;1.30;0.70;;;10.30;99.90;;;;;;4971113;28;20050;-81
2023/01/05 05:15:36;;;;;;;0.50;0.50;;;10.30;99.90;;;;;;4971786;28;20037;-81
2023/01/05 05:18:01;;;;;;;0.70;0.70;;;10.40;99.90;;;;;;4971975;28;20081;-82
2023/01/05 05:20:27;;;;;;;0.60;0.57;;;10.40;99.90;;;;;;4971922;28;20035;-82
2023/01/05 05:22:52;;;;;;;0.90;0.80;;;10.30;99.90;;;;;;4971050;28;20098;-81
2023/01/05 05:25:18;;;;;;;0.70;0.70;;;10.30;99.90;;;;;;4971456;28;20365;-81
2023/01/05 05:27:43;;;;;;;1.83;0.93;;;10.30;99.90;;;;;;4973452;28;20487;-81
2023/01/05 05:30:09;;;;;;;0.80;0.70;;;10.30;99.90;;;;;;4974212;28;20146;-81
2023/01/05 05:32:35;;;;;;;0.80;0.80;;;10.30;99.90;;;;;;4974340;28;20023;-81
2023/01/05 05:35:01;;;;;;;1.77;0.60;;;10.30;99.90;;;;;;4974436;28;20376;-81
2023/01/05 05:37:26;;;;;;;0.70;0.70;;;10.30;99.90;;;;;;4971684;28;20038;-81
2023/01/05 05:39:52;;;;;;;2.23;0.80;;;10.30;99.90;;;;;;4974942;28;20027;-81
2023/01/05 05:42:17;;;;;;;0.67;0.60;;;10.30;99.90;;;;;;4975032;28;20555;-82
2023/01/05 05:44:43;;;;;;;2.87;0.73;;;10.30;99.90;;;;;;4973555;28;20043;-81
2023/01/05 05:47:08;;;;;;;0.80;0.80;;;10.20;99.90;;;;;;4976339;28;20051;-81
2023/01/05 05:49:34;;;;;;;0.90;0.80;;;10.30;99.90;;;;;;4974029;28;20476;-81
2023/01/05 05:51:59;;;;;;;0.73;0.70;;;10.30;99.90;;;;;;4973664;28;20027;-81
2023/01/05 05:54:25;;;;;;;2.47;0.73;;;10.20;99.90;;;;;;4972846;28;20422;-81
2023/01/05 05:56:50;;;;;;;1.03;0.70;;;10.10;99.90;;;;;;4972640;28;20483;-82
2023/01/05 05:59:16;;;;;;;1.10;0.93;;;10.10;99.90;;;;;;4972487;28;20420;-82
2023/01/05 06:01:41;;;;;;;1.13;0.87;;;10.10;99.90;;;;;;4972893;28;20022;-82
2023/01/05 06:04:07;;;;;;;0.70;0.70;;;10.10;99.90;;;;;;4969365;28;20110;-86
2023/01/05 06:06:32;;;;;;;1.10;0.80;;;10.10;99.90;;;;;;4965528;28;20097;-81
2023/01/05 06:08:58;;;;;;;0.90;0.80;;;10.10;99.90;;;;;;4972272;28;20030;-75
2023/01/05 06:11:23;;;;;;;1.93;0.73;;;10.10;99.90;;;;;;4978089;28;20038;-75
2023/01/05 06:13:49;;;;;;;1.10;0.90;;;10.10;99.90;;;;;;4980941;28;20027;-75
2023/01/05 06:16:15;;;;;;;0.80;0.80;;;10.10;99.90;;;;;;4971687;28;20022;-82
2023/01/05 06:18:40;;;;;;;1.10;0.80;;;10.00;99.90;;;;;;4968985;28;20034;-81
2023/01/05 06:21:06;;;;;;;1.40;0.87;;;10.00;99.90;;;;;;4966638;28;20050;-81
2023/01/05 06:23:32;;;;;;;0.73;0.67;;;10.00;99.90;;;;;;4964425;28;20030;-81
2023/01/05 06:25:57;;;;;;;0.60;0.60;;;10.10;99.90;;;;;;4968866;28;20035;-82
2023/01/05 06:28:23;;;;;;;1.40;0.80;;;10.10;99.90;;;;;;4968804;28;20022;-83
2023/01/05 06:30:49;;;;;;;1.27;0.80;;;10.00;99.90;;;;;;4964745;28;20244;-82
2023/01/05 06:33:15;;;;;;;1.20;0.80;;;10.00;99.90;;;;;;4968564;28;20031;-82
2023/01/05 06:35:41;;;;;;;1.43;0.70;;;10.10;99.90;;;;;;4967537;28;20082;-83
2023/01/05 06:38:06;;;;;;;2.00;0.70;;;10.10;99.90;;;;;;4964013;28;20206;-82
2023/01/05 06:40:32;;;;;;;1.17;0.63;;;10.10;99.90;;;;;;4965780;28;20090;-83
2023/01/05 06:42:57;;;;;;;1.00;0.80;;;10.20;99.90;;;;;;4968916;28;20471;-83
2023/01/05 06:45:23;;;;;;;1.67;0.70;;;10.10;99.90;;;;;;4966709;28;20058;-83
2023/01/05 06:47:48;;;;;;;1.37;1.00;;;10.20;99.90;;;;;;4965383;28;20388;-83
2023/01/05 06:50:14;;;;;;;1.23;0.80;;;10.10;99.90;;;;;;4968978;28;20110;-83
2023/01/05 06:52:39;;;;;;;1.17;0.90;;;10.10;99.90;;;;;;4967333;28;20049;-83
2023/01/05 06:55:07;;;;;;;1.07;0.80;;;10.10;99.90;;;;;;4964384;28;20137;-83
2023/01/05 06:57:33;;;;;;;0.90;0.70;;;10.10;99.90;;;;;;4966363;28;20026;-83
2023/01/05 06:59:58;;;;;;;0.77;0.77;;;10.10;99.90;;;;;;4967541;28;20037;-83
2023/01/05 07:02:24;;;;;;;0.90;0.70;;;10.10;99.90;;;;;;4964228;28;20026;-83
2023/01/05 07:04:49;;;;;;;0.80;0.80;;;10.10;99.90;;;;;;4965410;28;20085;-83
2023/01/05 07:07:15;;;;;;;1.43;0.80;;;10.10;99.90;;;;;;4963935;28;20053;-83
2023/01/05 07:09:41;;;;;;;1.27;0.70;;;10.10;99.90;;;;;;4964414;28;20034;-83
2023/01/05 07:12:07;;;;;;;0.80;0.80;;;10.10;99.90;;;;;;4964485;28;20026;-83
2023/01/05 07:14:32;;;;;;;0.70;0.70;;;10.10;99.90;;;;;;4964535;28;21403;-83
2023/01/05 07:16:59;;;;;;;1.43;0.80;;;10.00;99.90;;;;;;4963415;28;20026;-82
2023/01/05 07:19:24;;;;;;;1.00;0.90;;;10.00;99.90;;;;;;4964942;28;20019;-83
2023/01/05 07:21:50;;;;;;;2.10;0.80;;;10.00;99.90;;;;;;4964238;28;20093;-83
2023/01/05 07:24:15;;;;;;;1.00;0.90;;;10.10;99.90;;;;;;4965342;28;20050;-83
2023/01/05 07:26:41;;;;;;;1.23;0.80;;;10.00;99.90;;;;;;4965202;28;20037;-81
2023/01/05 07:29:06;;;;;;;0.93;0.60;;;10.00;99.90;;;;;;4962596;28;20028;-82
2023/01/05 07:31:34;;;;;;;1.00;0.80;;;10.10;99.90;;;;;;4965386;28;20033;-81
2023/01/05 07:34:00;;;;;;;1.20;0.90;;;10.10;99.90;;;;;;4963619;28;20061;-82
2023/01/05 07:36:25;;;;;;;1.20;0.80;;;10.10;99.90;;;;;;4963915;28;20039;-81
2023/01/05 07:38:52;;;;;;;2.23;0.90;;;10.10;99.90;;;;;;4964093;28;20031;-81
2023/01/05 07:41:17;;;;;;;0.70;0.70;;;10.20;99.90;;;;;;4963577;28;20102;-80
2023/01/05 07:43:43;;;;;;;0.67;0.67;;;10.20;99.90;;;;;;4962741;28;20751;-82
2023/01/05 07:46:11;;;;;;;0.80;0.70;;;10.20;99.90;;;;;;4963946;28;20043;-82
2023/01/05 07:48:38;;;;;;;0.80;0.70;;;10.20;99.90;;;;;;4962749;28;20019;-82
2023/01/05 07:51:04;;;;;;;0.90;0.60;;;10.30;99.90;;;;;;4962957;28;20030;-82
2023/01/05 07:53:32;;;;;;;1.50;0.67;;;10.30;99.90;;;;;;4964434;28;20026;-82
2023/01/05 07:55:59;;;;;;;1.20;0.70;;;10.30;99.90;;;;;;4964320;28;20074;-82
2023/01/05 07:58:26;;;;;;;0.77;0.60;;;10.30;99.90;;;;;;4964888;28;20371;-82
2023/01/05 08:00:52;;;;;;;0.90;0.70;;;10.30;99.90;;;;;;4963987;28;20121;-82
2023/01/05 08:03:18;;;;;;;1.10;0.60;;;10.30;99.90;;;;;;4963227;28;20045;-81
2023/01/05 08:05:43;;;;;;;0.77;0.70;;;10.40;99.90;;;;;;4964211;28;20031;-86
2023/01/05 08:08:09;;;;;;;0.80;0.60;;;10.40;99.90;;;;;;4964421;28;20023;-75
2023/01/05 08:10:38;;;;;;;0.90;0.70;;;10.30;99.90;;;;;;4963851;28;20146;-84
2023/01/05 08:15:51;;;;;;;0.90;0.70;;;10.40;99.90;;;;;;4966813;28;20077;-84
2023/01/05 08:18:16;;;;;;;1.23;0.70;;;10.40;99.90;;;;;;4971038;28;20063;-84
2023/01/05 08:20:42;;;;;;;0.67;0.60;;;10.40;99.90;;;;;;4974899;28;20058;-83
2023/01/05 08:23:07;;;;;;;1.77;0.70;;;10.50;99.90;;;;;;4975522;28;20126;-83
2023/01/05 08:25:35;;;;;;;1.47;0.60;;;10.40;99.90;;;;;;4964732;28;20050;-84
2023/01/05 08:28:01;;;;;;;0.80;0.70;;;10.40;99.90;;;;;;4964051;28;20023;-84
2023/01/05 08:30:27;;;;;;;0.70;0.70;;;10.40;99.90;;;;;;4963962;28;20087;-84
2023/01/05 08:32:52;;;;;;;0.80;0.60;;;10.30;99.90;;;;;;4977270;28;20107;-78
2023/01/05 08:35:18;;;;;;;0.80;0.50;;;10.40;99.90;;;;;;4978181;28;20065;-78
2023/01/05 08:37:44;;;;;;;0.80;0.60;;;10.30;99.90;;;;;;4975094;28;20022;-79
2023/01/05 08:40:10;;;;;;;0.87;0.70;;;10.30;99.90;;;;;;4976752;28;20034;-79
2023/01/05 08:42:36;;;;;;;0.90;0.80;;;10.30;99.90;;;;;;4974892;28;20035;-78
2023/01/05 08:45:02;;;;;;;0.87;0.60;;;10.30;99.90;;;;;;4973240;28;20105;-79
2023/01/05 08:47:27;;;;;;;1.33;0.77;;;10.20;99.90;;;;;;4973404;28;20062;-79
2023/01/05 08:49:53;;;;;;;0.90;0.80;;;10.20;99.90;;;;;;4973383;28;20057;-79
2023/01/05 08:52:22;;;;;;;0.67;0.60;;;10.10;99.90;;;;;;4975995;28;20023;-80
2023/01/05 08:54:48;;;;;;;0.70;0.70;;;10.10;99.90;;;;;;4979303;28;20033;-80
2023/01/05 08:57:14;;;;;;;1.60;0.70;;;10.10;99.90;;;;;;4978130;28;20031;-79
2023/01/05 08:59:39;;;;;;;0.50;0.50;;;10.10;99.90;;;;;;4978112;28;20082;-79
2023/01/05 09:02:09;;;;;;;1.17;0.80;;;10.10;99.90;;;;;;4975923;28;20035;-79
2023/01/05 09:04:34;;;;;;;1.53;0.80;;;10.10;99.90;;;;;;4975278;28;20058;-80
2023/01/05 09:07:00;;;;;;;1.00;0.60;;;10.10;99.90;;;;;;4978716;28;20502;-80
2023/01/05 09:09:25;;;;;;;0.60;0.60;;;10.20;99.90;;;;;;4976002;28;20415;-79
2023/01/05 09:11:51;;;;;;;1.77;0.50;;;10.20;99.90;;;;;;4980805;28;20022;-80
2023/01/05 09:14:17;;;;;;;2.80;0.73;;;10.20;99.90;;;;;;4983265;28;20487;-80
2023/01/05 09:16:43;;;;;;;0.40;0.40;;;10.20;99.90;;;;;;4979274;28;20034;-80
2023/01/05 09:19:09;;;;;;;1.00;0.70;;;10.30;99.90;;;;;;4982282;28;20023;-80
2023/01/05 09:21:38;;;;;;;0.67;0.60;;;10.30;99.90;;;;;;4983467;28;20034;-79
2023/01/05 09:24:04;;;;;;;0.57;0.50;;;10.40;99.90;;;;;;4982784;28;20018;-79
2023/01/05 09:26:29;;;;;;;0.93;0.60;;;10.40;99.90;;;;;;4983646;28;20026;-79
2023/01/05 09:28:55;;;;;;;0.60;0.60;;;10.50;99.90;;;;;;4980905;28;20031;-79
2023/01/05 09:31:21;;;;;;;0.63;0.50;;;10.50;99.90;;;;;;4981094;28;20073;-79
2023/01/05 09:33:47;;;;;;;1.20;0.70;;;10.60;99.90;;;;;;4981285;28;20027;-79
2023/01/05 09:36:15;;;;;;;0.50;0.50;;;10.70;99.90;;;;;;4981450;28;20106;-79
2023/01/05 09:38:40;;;;;;;1.47;0.57;;;10.70;99.90;;;;;;4981553;28;20033;-79
2023/01/05 09:41:21;;;;;;;1.00;0.60;;;10.70;99.90;;;;;;4982000;28;20122;-79
2023/01/05 09:43:49;;;;;;;1.13;0.80;;;10.80;99.90;;;;;;4976503;28;20033;-79
2023/01/05 09:46:32;;;;;;;0.70;0.50;;;10.80;99.90;;;;;;4980166;28;20069;-79
2023/01/05 09:49:01;;;;;;;0.70;0.67;;;10.80;99.90;;;;;;4974902;28;20101;-80
2023/01/05 09:51:28;;;;;;;0.93;0.50;;;10.90;99.90;;;;;;4977214;28;20384;-79
2023/01/05 09:53:55;;;;;;;1.03;0.53;;;10.90;99.90;;;;;;4979516;28;20030;-79
2023/01/05 09:56:26;;;;;;;1.00;0.60;;;10.90;99.90;;;;;;4980344;28;20379;-79
2023/01/05 09:58:55;;;;;;;1.40;0.63;;;10.90;99.90;;;;;;4979469;28;20093;-79
2023/01/05 10:01:21;;;;;;;0.57;0.50;;;11.00;99.90;;;;;;4981703;28;20023;-79
2023/01/05 10:04:02;;;;;;;1.00;0.60;;;11.10;99.90;;;;;;4980788;28;20023;-79
2023/01/05 10:06:34;;;;;;;0.60;0.50;;;11.10;99.90;;;;;;4978965;28;20058;-80
2023/01/05 10:09:03;;;;;;;0.77;0.50;;;11.10;99.90;;;;;;4982052;28;20022;-79
2023/01/05 10:14:45;;;;;;;0.40;0.40;;;11.00;99.90;;;;;;4979395;28;20392;-78
2023/01/05 10:17:17;;;;;;;1.87;0.60;;;11.10;99.90;;;;;;4978643;28;20136;-79
2023/01/05 10:19:42;;;;;;;0.50;0.50;;;11.10;99.90;;;;;;4978980;28;20480;-79
2023/01/05 10:22:23;;;;;;;0.53;0.53;;;11.10;99.90;;;;;;4980665;28;20022;-79
2023/01/05 10:25:01;;;;;;;0.50;0.50;;;11.20;99.90;;;;;;4977778;28;20039;-78
2023/01/05 10:27:48;;;;;;;0.50;0.50;;;11.10;99.90;;;;;;4980653;28;20035;-79
2023/01/05 10:30:36;;;;;;;0.50;0.50;;;11.10;99.90;;;;;;4978048;28;20472;-77
2023/01/05 10:33:14;;;;;;;0.60;0.60;;;11.20;99.90;;;;;;4980151;28;20096;-78
2023/01/05 10:36:04;;;;;;;0.67;0.60;;;11.20;99.90;;;;;;4979942;28;20015;-78
2023/01/05 10:38:38;;;;;;;0.77;0.53;;;11.10;99.90;;;;;;4977562;28;20029;-78
2023/01/05 10:41:12;;;;;;;0.50;0.50;;;11.10;99.90;;;;;;4979925;28;20018;-79
2023/01/05 10:44:06;;;;;;;2.10;0.65;;;11.10;99.90;;;;;;4978334;28;20023;-79
2023/01/05 10:46:41;;;;;;;1.00;0.60;;;11.10;99.90;;;;;;4977092;28;20045;-78
2023/01/05 10:49:07;;;;;;;0.57;0.57;;;11.10;99.90;;;;;;4978081;28;20110;-79
2023/01/05 10:51:34;;;;;;;0.73;0.60;;;11.00;99.90;;;;;;4979085;28;20741;-79
2023/01/05 10:54:02;;;;;;;1.10;0.77;;;11.10;99.90;;;;;;4979168;28;20463;-79
2023/01/05 10:56:28;;;;;;;1.73;0.70;;;11.10;99.90;;;;;;4977916;28;20038;-78
2023/01/05 10:59:09;;;;;;;1.23;0.70;;;11.10;99.90;;;;;;4978896;28;20106;-78
2023/01/05 11:01:35;;;;;;;0.67;0.60;;;11.10;99.90;;;;;;4979990;28;20022;-79
2023/01/05 11:04:23;;;;;;;2.97;0.73;;;11.10;99.90;;;;;;4981375;28;20057;-78
2023/01/05 11:06:49;;;;;;;0.60;0.50;;;11.20;99.90;;;;;;4976026;28;20118;-79
2023/01/05 11:09:23;;;;;;;0.60;0.50;;;11.20;99.90;;;;;;4978527;28;20400;-80
2023/01/05 11:11:53;;;;;;;0.80;0.60;;;11.20;99.90;;;;;;4979756;28;20037;-79
2023/01/05 11:14:19;;;;;;;1.20;0.60;;;11.30;99.90;;;;;;4978841;28;20023;-78
2023/01/05 11:16:48;;;;;;;1.60;0.70;;;11.20;99.90;;;;;;4973380;28;20388;-79
2023/01/05 11:19:27;;;;;;;1.40;0.63;;;11.20;99.90;;;;;;4975989;28;20022;-79
2023/01/05 11:21:53;;;;;;;0.70;0.70;;;11.30;99.90;;;;;;4977359;28;20030;-79
2023/01/05 11:24:36;;;;;;;0.53;0.50;;;11.30;99.90;;;;;;4976508;28;20041;-79
2023/01/05 11:27:22;;;;;;;1.93;0.70;;;11.20;99.90;;;;;;4976097;28;20049;-79
2023/01/05 11:30:16;;;;;;;0.50;0.50;;;11.10;99.90;;;;;;4976014;28;20022;-79
2023/01/05 11:32:43;;;;;;;0.47;0.47;;;11.00;99.90;;;;;;4977560;28;21311;-78
2023/01/05 11:35:24;;;;;;;2.83;0.60;;;11.00;99.90;;;;;;4975120;28;20047;-79
2023/01/05 11:37:49;;;;;;;1.27;0.50;;;10.90;99.90;;;;;;4978791;28;20066;-79
2023/01/05 11:40:18;;;;;;;0.60;0.60;;;10.80;99.90;;;;;;4975118;28;20054;-79
2023/01/05 11:42:44;;;;;;;0.63;0.50;;;10.90;99.90;;;;;;4975821;28;20061;-79
2023/01/05 11:45:27;;;;;;;0.70;0.70;;;11.00;99.90;;;;;;4973357;28;20046;-79
2023/01/05 11:47:58;;;;;;;1.33;0.73;;;11.10;99.90;;;;;;4976635;28;20049;-79
2023/01/05 11:50:31;;;;;;;0.80;0.70;;;11.10;99.90;;;;;;4969989;28;20124;-83
2023/01/05 11:53:01;;;;;;;0.90;0.60;;;11.20;99.90;;;;;;4966882;28;20054;-84
2023/01/05 11:55:32;;;;;;;1.03;0.50;;;11.10;99.90;;;;;;4965050;28;20169;-84
2023/01/05 11:58:16;;;;;;;1.53;0.57;;;11.00;99.90;;;;;;4979601;28;20027;-83
2023/01/05 12:01:12;;;;;;;1.00;0.70;;;11.00;99.90;;;;;;4963454;28;20189;-83
2023/01/05 12:03:56;;;;;;;;;;;11.00;99.90;;;;;;4965472;28;20065;-83
2023/01/05 12:06:37;;;;;;;1.23;0.87;;;11.00;99.90;;;;;;4967115;28;19922;-83
2023/01/05 12:09:35;;;;;;;1.60;0.90;;;11.00;99.90;;;;;;4965344;28;20031;-83
2023/01/05 12:12:24;;;;;;;0.60;0.60;;;11.00;99.90;;;;;;4965213;28;20027;-83
2023/01/05 12:15:11;;;;;;;1.10;0.70;;;11.10;99.90;;;;;;4970764;28;20387;-79
2023/01/05 12:17:49;;;;;;;1.98;0.80;;;11.10;99.90;;;;;;4974509;28;20056;-79
2023/01/05 12:20:43;;;;;;;1.13;0.60;;;11.20;99.90;;;;;;4974746;28;20033;-84
2023/01/05 12:23:18;;;;;;;1.10;0.77;;;11.20;99.90;;;;;;4984432;28;20030;-78
2023/01/05 12:26:03;;;;;;;1.58;0.80;;;11.30;99.90;;;;;;4984766;28;20475;-79
2023/01/05 12:28:46;;;;;;;1.23;0.70;;;11.40;99.90;;;;;;4971650;28;20054;-83
2023/01/05 12:31:38;;;;;;;0.70;0.70;;;11.40;99.90;;;;;;4965761;28;20057;-83
2023/01/05 12:34:16;;;;;;;1.27;0.70;;;11.40;99.90;;;;;;4966799;28;20033;-84
2023/01/05 12:37:14;;;;;;;1.43;0.60;;;11.50;99.90;;;;;;4967713;28;20046;-83
2023/01/05 12:39:51;;;;;;;0.67;0.60;;;11.50;99.90;;;;;;4965255;28;20038;-82
2023/01/05 12:42:16;;;;;;;1.10;0.70;;;11.50;99.90;;;;;;4968593;28;20043;-82
2023/01/05 12:44:54;;;;;;;1.08;0.77;;;11.40;99.90;;;;;;4966957;28;20043;-82
2023/01/05 12:47:22;;;;;;;1.07;0.70;;;11.40;99.90;;;;;;4966954;28;20125;-83
2023/01/05 12:49:54;;;;;;;1.20;0.60;;;11.40;99.90;;;;;;4966574;28;20022;-83
2023/01/05 12:52:31;;;;;;;1.40;0.90;;;11.30;99.90;;;;;;4967988;28;20129;-83
2023/01/05 12:55:19;;;;;;;0.60;0.60;;;11.30;99.90;;;;;;4986319;28;20023;-82
2023/01/05 12:57:52;;;;;;;0.85;0.80;;;11.30;99.90;;;;;;4966886;28;20080;-82
2023/01/05 13:00:20;;;;;;;1.10;0.80;;;11.30;99.90;;;;;;4982238;28;20660;-83
2023/01/05 13:03:01;;;;;;;2.08;0.60;;;11.30;99.90;;;;;;4968640;28;20106;-82
2023/01/05 13:05:38;;;;;;;1.33;0.60;;;11.40;99.90;;;;;;4966875;28;20037;-82
2023/01/05 13:08:41;;;;;;;1.00;0.60;;;11.40;99.90;;;;;;4971488;28;20407;-82
2023/01/05 13:11:40;;;;;;;0.83;0.57;;;11.50;99.90;;;;;;4967116;28;20065;-82
2023/01/05 13:14:10;;;;;;;0.60;0.50;;;11.50;99.90;;;;;;4966945;28;20094;-82
2023/01/05 13:16:39;;;;;;;1.07;0.50;;;11.50;99.90;;;;;;4966920;28;20137;-83
2023/01/05 13:19:28;;;;;;;0.87;0.70;;;11.50;99.90;;;;;;4965521;28;20687;-82
2023/01/05 13:21:55;;;;;;;1.77;0.55;;;11.40;99.90;;;;;;4967107;28;20031;-82
2023/01/05 13:24:45;;;;;;;0.50;0.50;;;11.40;99.90;;;;;;4967355;28;20030;-82
2023/01/05 13:27:12;;;;;;;0.63;0.60;;;11.40;99.90;;;;;;4967004;28;20632;-82
2023/01/05 13:29:42;;;;;;;0.50;0.50;;;11.50;99.90;;;;;;4966634;28;20065;-85
2023/01/05 13:32:46;;;;;;;0.93;0.68;;;11.50;99.90;;;;;;4975568;28;21552;-78
2023/01/05 13:35:32;;;;;;;1.08;0.68;;;11.50;99.90;;;;;;4979916;28;20267;-78
2023/01/05 13:38:00;;;;;;;0.60;0.60;;;11.40;99.90;;;;;;4979459;28;20030;-78
2023/01/05 13:40:47;;;;;;;1.55;0.80;;;11.30;99.90;;;;;;4978917;28;20053;-79